Time;durP1;ratioP1;P1;durP2;ratioP2;P2;SDS_P1;SDS_P2;PMS_P1;PMS_P2;Temp;Humidity;BMP_temperature;BMP_pressure;BME280_temperature;BME280_humidity;BME280_pressure;Samples;Min_cycle;Max_cycle;Signal;HPM_P1;HPM_P2
2022/08/08 00:01:14;;;;;;;5.70;1.80;;;;;;;22.21;47.60;100454.78;5133679;27;20440;-75
2022/08/08 00:03:59;;;;;;;3.92;1.80;;;;;;;22.10;47.93;100446.06;5133699;27;20070;-75
2022/08/08 00:06:36;;;;;;;35.35;7.88;;;;;;;21.98;48.95;100450.88;5132525;27;20047;-76
2022/08/08 00:09:11;;;;;;;10.77;3.30;;;;;;;21.90;48.99;100443.53;5133570;27;20043;-73
2022/08/08 00:11:46;;;;;;;8.88;2.20;;;;;;;22.09;48.55;100426.19;5133778;27;20096;-75
2022/08/08 00:14:49;;;;;;;3.45;1.80;;;;;;;22.19;48.18;100421.47;5133869;27;20039;-75
2022/08/08 00:17:39;;;;;;;3.40;1.80;;;;;;;22.08;48.60;100419.06;5133401;27;20449;-75
2022/08/08 00:20:35;;;;;;;3.25;1.70;;;;;;;22.18;48.26;100427.09;5133606;27;20039;-77
2022/08/08 00:23:07;;;;;;;4.03;1.70;;;;;;;22.02;49.08;100424.28;5133262;27;20031;-77
2022/08/08 00:25:39;;;;;;;2.92;1.83;;;;;;;21.99;49.44;100433.56;5133651;27;20043;-76
2022/08/08 00:28:23;;;;;;;5.03;1.80;;;;;;;21.79;50.00;100434.81;5133288;27;20043;-73
2022/08/08 00:31:08;;;;;;;3.42;1.88;;;;;;;21.83;50.37;100438.94;5132730;27;20043;-73
2022/08/08 00:37:05;;;;;;;12.82;3.22;;;;;;;22.10;49.73;100416.16;5133260;28;20476;-74
2022/08/08 00:40:01;;;;;;;5.15;2.17;;;;;;;22.09;49.97;100409.88;5132938;27;20043;-74
2022/08/08 00:43:13;;;;;;;2.92;1.90;;;;;;;22.06;49.93;100414.78;5133376;28;20046;-73
2022/08/08 00:46:13;;;;;;;4.97;1.90;;;;;;;22.12;49.41;100409.59;5133226;27;20066;-74
2022/08/08 00:49:04;;;;;;;2.75;1.70;;;;;;;22.08;49.60;100408.19;5133403;27;20518;-75
2022/08/08 00:52:09;;;;;;;3.58;1.90;;;;;;;21.98;50.04;100419.16;5136493;27;20054;-73
2022/08/08 00:55:12;;;;;;;3.72;1.75;;;;;;;22.05;49.89;100413.94;5137595;27;20035;-75
2022/08/08 00:58:20;;;;;;;3.67;1.60;;;;;;;21.91;50.06;100422.69;5137477;27;20066;-72
2022/08/08 01:01:10;;;;;;;4.38;1.90;;;;;;;22.04;50.13;100416.81;5137142;27;20464;-75
2022/08/08 01:04:33;;;;;;;5.47;2.20;;;;;;;22.12;49.91;100409.59;5137470;27;20209;-75
2022/08/08 01:07:36;;;;;;;4.65;1.80;;;;;;;21.98;50.84;100404.72;5136671;27;20051;-76
2022/08/08 01:10:49;;;;;;;3.80;1.88;;;;;;;21.90;51.31;100410.09;5120854;27;20061;-77
2022/08/08 01:13:59;;;;;;;4.72;1.70;;;;;;;21.61;52.49;100415.88;5136907;27;20043;-77
2022/08/08 01:16:55;;;;;;;5.65;2.22;;;;;;;21.68;52.16;100412.34;5136973;27;20472;-77
2022/08/08 01:20:05;;;;;;;3.78;1.52;;;;;;;21.71;52.28;100417.50;5136936;27;20126;-77
2022/08/08 01:23:10;;;;;;;4.50;1.90;;;;;;;21.64;52.53;100407.41;5137193;27;20047;-78
2022/08/08 01:26:28;;;;;;;3.35;1.90;;;;;;;21.60;52.91;100409.59;5136535;27;20043;-78
2022/08/08 01:29:22;;;;;;;6.32;1.88;;;;;;;21.57;53.77;100415.34;5136325;27;20474;-75
2022/08/08 01:32:03;;;;;;;;;;;;;;;21.55;53.54;100409.22;5137181;27;20432;-74
2022/08/08 01:35:26;;;;;;;4.30;1.80;;;;;;;21.60;53.94;100403.31;5136279;27;19946;-74
2022/08/08 01:38:41;;;;;;;4.25;1.92;;;;;;;21.73;53.28;100409.19;5135162;27;20104;-77
2022/08/08 01:41:16;;;;;;;3.97;1.98;;;;;;;21.63;53.99;100403.84;5072720;28;20520;-73
2022/08/08 01:43:52;;;;;;;5.13;1.98;;;;;;;21.50;54.66;100408.00;5132156;27;20077;-74
2022/08/08 01:46:40;;;;;;;5.18;1.90;;;;;;;21.60;54.32;100415.00;5136005;27;20107;-75
2022/08/08 01:49:18;;;;;;;4.88;1.98;;;;;;;21.46;55.08;100406.63;5136282;27;20130;-75
2022/08/08 01:51:59;;;;;;;3.25;1.80;;;;;;;21.66;54.46;100405.41;5136359;27;20042;-75
2022/08/08 01:54:59;;;;;;;4.63;2.00;;;;;;;21.48;54.90;100405.44;5136251;27;20437;-74
2022/08/08 01:57:59;;;;;;;4.28;1.73;;;;;;;21.40;55.47;100395.38;5135863;27;20476;-74
2022/08/08 02:00:51;;;;;;;3.33;1.73;;;;;;;21.20;55.91;100391.13;5134551;27;20058;-75
2022/08/08 02:03:46;;;;;;;3.72;1.90;;;;;;;21.44;55.63;100390.50;5134947;27;20394;-75
2022/08/08 02:06:45;;;;;;;3.20;1.90;;;;;;;21.35;55.43;100395.00;5135969;27;20039;-74
2022/08/08 02:09:28;;;;;;;4.80;1.95;;;;;;;21.38;55.82;100393.84;5135712;27;20097;-74
2022/08/08 02:12:24;;;;;;;4.85;1.90;;;;;;;21.33;55.82;100388.91;5135464;27;20062;-75
2022/08/08 02:15:00;;;;;;;6.50;1.92;;;;;;;21.33;56.18;100390.75;5135951;27;20043;-75
2022/08/08 02:17:40;;;;;;;4.40;1.92;;;;;;;21.33;56.01;100401.63;5136161;27;20051;-75
2022/08/08 02:20:23;;;;;;;3.45;1.75;;;;;;;21.32;55.72;100399.88;5135424;27;20073;-76
2022/08/08 02:23:19;;;;;;;4.25;1.90;;;;;;;21.24;55.70;100403.38;5135667;27;20055;-76
2022/08/08 02:25:59;;;;;;;4.15;1.70;;;;;;;21.33;55.12;100401.63;5135851;27;20122;-76
2022/08/08 02:28:45;;;;;;;3.83;1.80;;;;;;;21.22;55.76;100405.38;5135928;27;20046;-74
2022/08/08 02:31:37;;;;;;;4.03;1.70;;;;;;;21.27;55.42;100408.50;5134860;27;20506;-75
2022/08/08 02:34:48;;;;;;;3.50;1.80;;;;;;;21.22;55.47;100418.06;5134311;27;20066;-74
2022/08/08 02:37:54;;;;;;;3.75;1.80;;;;;;;21.17;55.58;100424.00;5135876;27;20114;-76
2022/08/08 02:40:37;;;;;;;3.58;1.80;;;;;;;21.24;55.50;100426.94;5135200;27;20119;-77
2022/08/08 02:43:44;;;;;;;3.92;1.95;;;;;;;21.13;55.99;100423.47;5135053;27;20104;-76
2022/08/08 02:47:01;;;;;;;4.25;1.70;;;;;;;21.19;56.25;100431.97;5120491;27;20051;-74
2022/08/08 02:50:08;;;;;;;2.75;1.73;;;;;;;21.15;56.38;100432.28;5135095;27;20047;-74
2022/08/08 02:52:59;;;;;;;4.40;2.00;;;;;;;21.12;56.48;100421.72;5133945;27;20055;-75
2022/08/08 02:56:07;;;;;;;3.47;1.70;;;;;;;21.16;56.21;100422.28;5135258;27;20471;-75
2022/08/08 02:59:21;;;;;;;5.22;1.83;;;;;;;21.00;57.30;100420.28;5133704;27;20159;-76
2022/08/08 03:02:47;;;;;;;3.03;1.67;;;;;;;20.98;57.53;100419.56;5134611;27;20075;-75
2022/08/08 03:06:14;;;;;;;6.03;2.25;;;;;;;20.95;57.61;100424.47;5134791;27;20494;-75
2022/08/08 03:09:53;;;;;;;3.50;1.80;;;;;;;20.86;57.93;100423.53;5071192;28;20405;-75
2022/08/08 03:12:44;;;;;;;5.45;2.00;;;;;;;20.63;58.99;100435.81;5076810;27;20072;-75
2022/08/08 03:16:01;;;;;;;4.38;1.70;;;;;;;20.93;58.72;100430.03;5134760;27;20492;-74
2022/08/08 03:18:44;;;;;;;4.72;1.80;;;;;;;20.89;57.90;100431.34;5134595;27;20043;-74
2022/08/08 03:21:14;;;;;;;4.15;1.85;;;;;;;20.78;58.71;100429.72;5134375;27;20549;-75
2022/08/08 03:23:44;;;;;;;3.45;1.70;;;;;;;20.79;58.92;100436.00;5134517;27;20061;-75
2022/08/08 03:26:31;;;;;;;2.85;1.70;;;;;;;20.75;59.24;100451.72;5134215;27;20043;-75
2022/08/08 03:29:16;;;;;;;5.43;2.00;;;;;;;20.81;59.60;100461.09;5134009;27;20043;-73
2022/08/08 03:34:41;;;;;;;4.80;2.08;;;;;;;21.11;57.21;100446.31;5134200;27;20047;-74
2022/08/08 03:37:10;;;;;;;3.75;2.03;;;;;;;20.87;58.48;100455.06;5134004;27;20043;-76
2022/08/08 03:40:01;;;;;;;3.72;1.80;;;;;;;21.08;57.76;100452.03;5134189;27;20502;-76
2022/08/08 03:42:31;;;;;;;4.85;1.92;;;;;;;21.14;57.39;100444.16;5133117;27;20053;-76
2022/08/08 03:44:59;;;;;;;4.90;1.90;;;;;;;20.90;58.58;100438.47;5133924;27;20055;-76
2022/08/08 03:47:58;;;;;;;4.18;1.90;;;;;;;20.98;58.55;100438.56;5133951;27;20039;-76
2022/08/08 03:50:29;;;;;;;5.63;2.00;;;;;;;20.97;58.95;100452.28;5134048;27;20104;-76
2022/08/08 03:53:06;;;;;;;3.38;2.00;;;;;;;20.93;58.86;100451.72;5133886;27;20035;-74
2022/08/08 03:55:39;;;;;;;3.45;1.77;;;;;;;21.02;57.79;100453.50;5134147;27;20043;-74
2022/08/08 03:58:25;;;;;;;5.85;1.85;;;;;;;21.13;57.54;100445.16;5133556;27;20078;-76
2022/08/08 04:01:05;;;;;;;5.43;2.47;;;;;;;20.95;58.48;100447.00;5134121;27;20112;-78
2022/08/08 04:03:51;;;;;;;4.50;2.20;;;;;;;21.14;57.67;100446.84;5134048;27;20051;-78
2022/08/08 04:06:29;;;;;;;3.60;1.83;;;;;;;21.07;58.23;100444.91;5133555;27;20043;-78
2022/08/08 04:08:58;;;;;;;5.07;2.03;;;;;;;20.98;58.69;100445.84;5132144;27;20163;-78
2022/08/08 04:11:43;;;;;;;3.33;1.98;;;;;;;20.98;58.46;100440.41;5133796;27;20099;-77
2022/08/08 04:14:27;;;;;;;6.20;2.17;;;;;;;20.92;59.35;100441.88;5133526;27;20071;-76
2022/08/08 04:17:03;;;;;;;4.38;2.15;;;;;;;20.88;60.07;100439.66;5133350;27;20497;-76
2022/08/08 04:19:42;;;;;;;5.40;1.92;;;;;;;20.74;60.75;100430.16;5133999;27;20073;-77
2022/08/08 04:22:12;;;;;;;6.05;1.88;;;;;;;20.71;61.32;100444.88;5133506;27;20067;-77
2022/08/08 04:24:43;;;;;;;5.63;2.15;;;;;;;20.63;61.75;100435.81;5133662;27;20054;-75
2022/08/08 04:27:18;;;;;;;5.90;1.73;;;;;;;20.72;61.20;100451.16;5133179;27;20065;-76
2022/08/08 04:30:08;;;;;;;5.38;2.30;;;;;;;20.74;61.36;100450.00;5133432;27;20050;-75
2022/08/08 04:32:46;;;;;;;5.70;2.00;;;;;;;20.87;61.99;100460.47;5133391;27;20458;-75
2022/08/08 04:35:18;;;;;;;4.60;2.05;;;;;;;20.88;61.59;100467.59;5132086;28;20078;-75
2022/08/08 04:37:50;;;;;;;5.20;1.83;;;;;;;20.83;62.38;100467.19;5133242;27;20139;-76
2022/08/08 04:40:20;;;;;;;5.88;2.10;;;;;;;20.70;63.34;100472.16;5132989;27;20341;-76
2022/08/08 04:42:52;;;;;;;4.53;2.10;;;;;;;20.87;62.47;100471.31;5133469;27;20095;-77
2022/08/08 04:45:25;;;;;;;3.70;1.80;;;;;;;20.89;62.29;100463.88;5131642;28;20100;-77
2022/08/08 04:47:54;;;;;;;7.15;2.28;;;;;;;20.90;62.22;100462.03;5133497;27;20572;-75
2022/08/08 04:50:22;;;;;;;4.78;1.92;;;;;;;20.98;61.85;100462.97;5133054;27;20039;-76
2022/08/08 04:52:56;;;;;;;6.82;1.83;;;;;;;21.04;60.80;100466.94;5133209;27;20464;-72
2022/08/08 04:55:31;;;;;;;4.93;2.20;;;;;;;20.82;61.91;100473.63;5131594;28;20043;-72
2022/08/08 04:58:16;;;;;;;4.35;2.10;;;;;;;21.20;59.86;100482.50;5132888;27;20118;-71
2022/08/08 05:00:45;;;;;;;4.28;2.00;;;;;;;21.15;60.23;100483.81;5133063;27;20418;-73
2022/08/08 05:03:16;;;;;;;3.42;2.03;;;;;;;21.13;60.69;100483.13;5133014;27;20482;-73
2022/08/08 05:06:05;;;;;;;5.43;2.20;;;;;;;21.32;59.63;100483.97;5133211;27;20051;-72
2022/08/08 05:08:46;;;;;;;4.57;2.20;;;;;;;21.27;59.94;100481.75;5131633;28;20423;-77
2022/08/08 05:11:19;;;;;;;4.43;1.80;;;;;;;21.61;57.99;100487.28;5131354;27;20051;-81
2022/08/08 05:13:54;;;;;;;4.82;2.10;;;;;;;21.44;59.67;100485.47;5132843;27;20543;-74
2022/08/08 05:16:28;;;;;;;4.20;2.03;;;;;;;21.51;58.45;100485.69;5132631;27;20434;-76
2022/08/08 05:19:17;;;;;;;4.85;2.15;;;;;;;21.68;58.64;100488.38;5132462;27;20130;-73
2022/08/08 05:22:05;;;;;;;6.15;2.20;;;;;;;21.78;58.99;100476.56;5132884;27;20035;-74
2022/08/08 05:24:34;;;;;;;4.68;2.10;;;;;;;22.06;56.68;100475.38;5132618;27;20517;-78
2022/08/08 05:27:05;;;;;;;3.80;2.00;;;;;;;22.13;56.58;100481.91;5133206;27;20046;-77
2022/08/08 05:29:35;;;;;;;4.82;1.98;;;;;;;21.95;57.14;100478.38;5132717;27;20047;-76
2022/08/08 05:32:05;;;;;;;4.57;1.90;;;;;;;22.02;56.53;100471.31;5132673;27;20067;-73
2022/08/08 05:34:36;;;;;;;4.03;1.92;;;;;;;22.36;55.74;100465.88;5132562;27;20035;-85
2022/08/08 05:37:05;;;;;;;4.63;2.25;;;;;;;22.44;54.36;100478.66;5134914;27;20144;-81
2022/08/08 05:39:49;;;;;;;3.72;1.83;;;;;;;22.49;53.17;100482.63;5136395;27;20075;-79
2022/08/08 05:42:22;;;;;;;3.53;1.80;;;;;;;22.45;53.90;100483.09;5136172;27;20047;-75
2022/08/08 05:44:54;;;;;;;;;;;;;;;22.59;52.70;100487.06;5136570;27;20039;-79
2022/08/08 05:47:27;;;;;;;6.53;2.10;;;;;;;22.50;52.32;100488.91;5135867;27;19919;-85
2022/08/08 05:50:18;;;;;;;3.40;1.75;;;;;;;22.52;52.25;100481.41;5135859;27;20050;-82
2022/08/08 05:52:47;;;;;;;6.88;1.90;;;;;;;22.57;52.80;100489.91;5135732;27;20057;-85
2022/08/08 05:55:15;;;;;;;6.47;1.90;;;;;;;22.39;53.29;100486.44;5135580;27;20035;-79
2022/08/08 05:57:47;;;;;;;4.32;1.90;;;;;;;22.28;53.98;100483.00;5135891;27;20063;-77
2022/08/08 06:00:35;;;;;;;4.97;2.03;;;;;;;22.68;52.16;100481.50;5135538;27;20087;-77
2022/08/08 06:03:12;;;;;;;3.63;1.88;;;;;;;22.86;51.14;100484.09;5134221;27;20051;-76
2022/08/08 06:05:55;;;;;;;7.18;1.90;;;;;;;23.01;50.26;100484.31;5135788;27;20047;-77
2022/08/08 06:08:27;;;;;;;5.03;1.85;;;;;;;23.47;49.97;100485.56;5135629;27;20045;-76
2022/08/08 06:11:04;;;;;;;4.55;1.75;;;;;;;23.07;49.89;100478.22;5135472;27;20039;-73
2022/08/08 06:13:32;;;;;;;5.32;1.98;;;;;;;23.27;48.54;100484.19;5135200;27;20047;-74
2022/08/08 06:16:05;;;;;;;4.80;1.85;;;;;;;23.17;48.56;100481.63;5135778;27;20055;-74
2022/08/08 06:18:36;;;;;;;6.43;1.80;;;;;;;23.16;48.33;100485.34;5135250;27;20062;-73
2022/08/08 06:21:05;;;;;;;5.72;1.75;;;;;;;23.18;48.58;100483.34;5135390;27;20039;-74
2022/08/08 06:23:53;;;;;;;6.68;1.95;;;;;;;23.45;49.08;100487.63;5134115;27;20053;-73
2022/08/08 06:26:37;;;;;;;5.45;1.90;;;;;;;24.03;47.21;100489.28;5133592;27;20054;-73
2022/08/08 06:29:30;;;;;;;5.18;1.77;;;;;;;25.33;42.68;100487.88;5135269;27;20445;-79
2022/08/08 06:32:28;;;;;;;5.95;1.80;;;;;;;25.86;40.57;100495.09;5134791;27;20068;-79
2022/08/08 06:35:03;;;;;;;5.80;1.90;;;;;;;26.79;38.95;100491.84;5135032;27;20043;-74
2022/08/08 06:37:53;;;;;;;4.53;1.77;;;;;;;27.02;37.21;100502.69;5135020;27;20498;-74
2022/08/08 06:40:25;;;;;;;;;;;;;;;26.53;37.26;100502.44;5135166;27;20067;-73
2022/08/08 06:42:55;;;;;;;5.35;1.38;;;;;;;26.18;37.69;100488.47;5133555;27;19972;-71
2022/08/08 06:45:24;;;;;;;2.83;1.48;;;;;;;25.63;38.98;100492.38;5133300;27;20119;-74
2022/08/08 06:47:54;;;;;;;6.75;1.92;;;;;;;25.56;38.70;100487.84;5133143;27;20039;-71
2022/08/08 06:50:31;;;;;;;6.72;1.85;;;;;;;24.68;40.43;100499.13;5134375;27;20135;-71
2022/08/08 06:53:08;;;;;;;3.22;1.60;;;;;;;24.56;41.15;100490.50;5134642;27;20051;-72
2022/08/08 06:55:42;;;;;;;5.85;1.70;;;;;;;24.62;42.02;100488.97;5134437;27;20122;-72
2022/08/08 06:58:14;;;;;;;4.38;1.60;;;;;;;24.46;42.30;100490.72;5134726;27;20452;-73
2022/08/08 07:00:49;;;;;;;5.30;1.80;;;;;;;24.32;42.86;100496.91;5134392;27;20059;-72
2022/08/08 07:03:27;;;;;;;4.15;1.58;;;;;;;24.16;43.92;100505.09;5134041;27;20065;-72
2022/08/08 07:06:20;;;;;;;5.78;2.03;;;;;;;24.21;43.50;100497.22;5134859;27;20071;-71
2022/08/08 07:08:52;;;;;;;5.05;1.70;;;;;;;23.90;44.05;100495.25;5133095;27;20084;-71
2022/08/08 07:11:27;;;;;;;6.68;1.75;;;;;;;23.81;44.08;100490.00;5132609;27;20054;-71
2022/08/08 07:14:00;;;;;;;6.80;1.67;;;;;;;23.79;44.50;100498.34;5134127;27;20047;-71
2022/08/08 07:16:40;;;;;;;5.07;2.00;;;;;;;23.92;44.11;100503.25;5134018;27;20043;-71
2022/08/08 07:19:30;;;;;;;3.92;1.45;;;;;;;24.10;43.89;100508.50;5133967;27;20041;-72
2022/08/08 07:22:03;;;;;;;7.15;1.83;;;;;;;24.14;43.24;100496.25;5134263;27;20067;-72
2022/08/08 07:24:44;;;;;;;4.43;1.70;;;;;;;24.03;43.84;100499.31;5133730;27;20454;-71
2022/08/08 07:27:16;;;;;;;5.95;1.80;;;;;;;24.06;43.72;100499.00;5134145;27;20083;-71
2022/08/08 07:29:46;;;;;;;4.00;1.73;;;;;;;23.91;43.70;100501.56;5133930;27;20056;-71
2022/08/08 07:32:31;;;;;;;6.88;1.60;;;;;;;23.62;44.47;100497.50;5133869;27;20043;-73
2022/08/08 07:35:04;;;;;;;8.88;2.15;;;;;;;23.79;44.50;100505.66;5133685;27;20043;-73
2022/08/08 07:37:36;;;;;;;7.40;1.83;;;;;;;24.09;44.00;100502.19;5134045;27;20031;-73
2022/08/08 07:40:26;;;;;;;3.33;1.38;;;;;;;24.36;42.95;100500.97;5133850;27;20047;-72
2022/08/08 07:43:01;;;;;;;6.75;1.75;;;;;;;24.23;43.37;100506.09;5132480;27;20055;-72
2022/08/08 07:45:31;;;;;;;4.00;1.60;;;;;;;24.43;43.04;100510.16;5133503;27;20074;-72
2022/08/08 07:48:19;;;;;;;5.47;1.80;;;;;;;24.73;42.60;100502.19;5132278;27;20457;-79
2022/08/08 07:50:57;;;;;;;4.40;1.83;;;;;;;24.83;43.23;100497.38;5132407;27;20051;-73
2022/08/08 07:53:33;;;;;;;7.60;1.80;;;;;;;24.78;41.80;100499.78;5132028;27;20100;-71
2022/08/08 07:56:26;;;;;;;3.97;1.60;;;;;;;24.71;41.54;100509.72;5132077;27;20121;-71
2022/08/08 07:59:08;;;;;;;2.67;1.52;;;;;;;24.95;41.11;100516.91;5132402;27;20134;-72
2022/08/08 08:01:46;;;;;;;5.28;1.75;;;;;;;24.87;41.46;100522.41;5130889;27;20427;-72
2022/08/08 08:04:35;;;;;;;4.80;1.73;;;;;;;25.15;40.82;100530.97;5131712;27;20058;-72
2022/08/08 08:07:10;;;;;;;2.75;1.50;;;;;;;25.34;40.59;100528.63;5132012;27;20043;-72
2022/08/08 08:09:41;;;;;;;4.95;1.50;;;;;;;25.39;40.43;100519.91;5131585;27;20051;-71
2022/08/08 08:12:12;;;;;;;3.60;1.52;;;;;;;25.53;39.70;100530.03;5133291;27;20057;-72
2022/08/08 08:15:04;;;;;;;4.63;1.40;;;;;;;25.69;38.97;100520.88;5133329;27;20049;-72
2022/08/08 08:17:35;;;;;;;5.88;1.75;;;;;;;25.65;38.45;100524.97;5133377;27;20051;-71
2022/08/08 08:20:18;;;;;;;3.25;1.48;;;;;;;25.63;38.42;100527.06;5131968;27;20395;-71
2022/08/08 08:22:49;;;;;;;6.18;1.70;;;;;;;25.72;38.36;100519.66;5131700;27;20047;-71
2022/08/08 08:25:17;;;;;;;3.90;1.50;;;;;;;25.81;38.46;100524.88;5133150;27;20375;-72
2022/08/08 08:27:46;;;;;;;5.50;1.55;;;;;;;26.00;37.91;100528.13;5131913;27;20050;-72
2022/08/08 08:30:17;;;;;;;4.75;1.38;;;;;;;26.23;36.76;100524.28;5132886;27;20047;-72
2022/08/08 08:32:46;;;;;;;3.50;1.50;;;;;;;26.02;36.70;100529.63;5133076;27;20051;-72
2022/08/08 08:35:18;;;;;;;3.53;1.52;;;;;;;26.11;36.94;100528.53;5131402;28;20053;-73
2022/08/08 08:37:58;;;;;;;3.50;1.55;;;;;;;25.93;37.42;100533.47;5132846;27;20043;-72
2022/08/08 08:40:45;;;;;;;4.07;1.70;;;;;;;26.46;37.16;100531.59;5132492;27;20099;-72
2022/08/08 08:43:17;;;;;;;6.13;1.58;;;;;;;26.60;35.84;100536.22;5131738;28;20130;-72
2022/08/08 08:45:48;;;;;;;2.53;1.35;;;;;;;26.60;36.86;100547.16;5132642;27;20482;-71
2022/08/08 08:48:24;;;;;;;3.80;1.58;;;;;;;26.36;36.47;100545.53;5133021;27;20035;-71
2022/08/08 08:50:54;;;;;;;3.83;1.58;;;;;;;26.54;36.88;100547.94;5132067;28;20130;-71
2022/08/08 08:53:26;;;;;;;4.50;1.88;;;;;;;26.90;36.75;100547.13;5132820;27;20047;-72
2022/08/08 08:56:16;;;;;;;6.47;2.08;;;;;;;26.77;36.42;100554.13;5131321;27;20056;-72
2022/08/08 08:58:53;;;;;;;6.65;1.80;;;;;;;26.83;36.14;100544.31;5131552;28;20143;-71
2022/08/08 09:01:23;;;;;;;4.30;1.50;;;;;;;27.09;35.37;100541.06;5131458;27;20063;-71
2022/08/08 09:03:55;;;;;;;3.92;1.80;;;;;;;27.05;35.34;100545.25;5132973;27;20053;-73
2022/08/08 09:06:27;;;;;;;4.45;1.60;;;;;;;26.96;35.50;100547.22;5132748;27;20102;-72
2022/08/08 09:09:05;;;;;;;3.33;1.58;;;;;;;26.77;35.45;100545.91;5131553;28;20054;-72
2022/08/08 09:11:35;;;;;;;3.97;1.67;;;;;;;26.58;35.82;100542.91;5132069;27;20051;-72
2022/08/08 09:14:25;;;;;;;3.30;1.60;;;;;;;26.79;35.76;100551.19;5136403;27;20046;-72
2022/08/08 09:16:54;;;;;;;5.97;1.88;;;;;;;26.72;36.42;100551.09;5135270;27;20088;-73
2022/08/08 09:19:23;;;;;;;2.75;1.60;;;;;;;26.59;36.11;100542.72;5136226;27;20035;-72
2022/08/08 09:22:12;;;;;;;4.30;2.20;;;;;;;26.57;36.78;100535.75;5135171;27;20055;-72
2022/08/08 09:24:55;;;;;;;5.10;2.22;;;;;;;26.73;37.21;100536.41;5136376;27;20043;-71
2022/08/08 09:27:26;;;;;;;4.93;1.80;;;;;;;26.61;37.41;100548.84;5136296;27;20065;-72
2022/08/08 09:30:15;;;;;;;3.22;1.55;;;;;;;26.69;37.64;100546.00;5134775;27;20482;-71
2022/08/08 09:32:50;;;;;;;3.92;1.80;;;;;;;26.68;37.65;100549.78;5136193;27;20039;-72
2022/08/08 09:35:40;;;;;;;5.18;1.80;;;;;;;26.66;37.12;100554.59;5136341;27;20046;-72
2022/08/08 09:38:29;;;;;;;6.05;1.55;;;;;;;26.62;37.31;100549.69;5136240;27;20043;-72
2022/08/08 09:41:05;;;;;;;2.95;1.73;;;;;;;26.63;37.92;100552.22;5136563;27;20076;-72
2022/08/08 09:43:44;;;;;;;4.90;2.10;;;;;;;26.73;38.42;100541.88;5134741;27;20051;-73
2022/08/08 09:46:34;;;;;;;6.65;2.28;;;;;;;26.62;38.97;100533.28;5135953;27;20043;-71
2022/08/08 09:49:07;;;;;;;6.97;2.25;;;;;;;26.74;42.98;100549.03;5134547;27;20107;-72
2022/08/08 09:51:56;;;;;;;6.00;2.22;;;;;;;26.63;43.85;100543.19;5134539;27;20126;-72
2022/08/08 09:54:42;;;;;;;11.02;2.95;;;;;;;26.68;45.21;100543.47;5135717;27;20126;-72
2022/08/08 09:57:18;;;;;;;8.07;2.47;;;;;;;26.81;44.20;100539.00;5136001;27;20039;-72
2022/08/08 09:59:56;;;;;;;5.95;2.60;;;;;;;26.70;45.63;100536.75;5134361;27;20051;-72
2022/08/08 10:02:45;;;;;;;9.88;2.35;;;;;;;26.61;45.31;100532.44;5133845;27;20491;-72
2022/08/08 10:05:19;;;;;;;8.32;2.75;;;;;;;26.44;45.99;100525.44;5135629;27;20490;-72
2022/08/08 10:07:57;;;;;;;9.95;2.50;;;;;;;26.42;45.03;100530.25;5135534;27;20399;-71
2022/08/08 10:10:30;;;;;;;8.68;2.67;;;;;;;26.25;45.06;100522.22;5134018;27;20157;-71
2022/08/08 10:13:01;;;;;;;7.45;2.50;;;;;;;26.36;44.32;100522.81;5134154;27;20406;-71
2022/08/08 10:15:46;;;;;;;8.90;2.47;;;;;;;26.34;44.08;100535.78;5135207;27;20051;-71
2022/08/08 10:18:29;;;;;;;12.45;2.60;;;;;;;26.43;44.05;100526.50;5133783;27;20047;-77
2022/08/08 10:21:03;;;;;;;11.70;2.67;;;;;;;26.51;43.83;100537.34;5135399;27;20110;-71
2022/08/08 10:23:52;;;;;;;9.25;2.80;;;;;;;26.60;44.67;100538.94;5134109;27;20043;-71
2022/08/08 10:26:30;;;;;;;7.47;2.45;;;;;;;26.52;44.16;100539.03;5135661;27;20364;-72
2022/08/08 10:29:23;;;;;;;11.55;3.00;;;;;;;26.52;43.46;100539.03;5135023;27;20054;-73
2022/08/08 10:34:50;;;;;;;9.18;2.80;;;;;;;26.50;45.48;100533.75;5133121;27;20487;-73
2022/08/08 10:37:28;;;;;;;11.82;2.85;;;;;;;26.58;45.63;100530.09;5133738;27;20081;-72
2022/08/08 10:39:59;;;;;;;10.30;3.40;;;;;;;26.64;46.05;100521.13;5134951;27;20045;-72
2022/08/08 10:42:36;;;;;;;8.00;2.90;;;;;;;26.56;46.64;100517.63;5133330;27;20075;-73
2022/08/08 10:45:12;;;;;;;10.07;2.97;;;;;;;26.44;47.61;100509.03;5135151;27;20035;-71
2022/08/08 10:47:43;;;;;;;;;;;;;;;26.52;47.83;100509.78;5134988;27;20117;-71
2022/08/08 10:50:21;;;;;;;7.07;2.78;;;;;;;26.43;46.93;100507.34;5134966;27;20363;-71
2022/08/08 10:52:50;;;;;;;9.88;2.78;;;;;;;26.47;47.08;100500.47;5134262;27;20096;-73
2022/08/08 10:55:19;;;;;;;10.25;2.80;;;;;;;26.36;47.37;100493.56;5134753;27;20039;-72
2022/08/08 10:58:09;;;;;;;7.43;3.17;;;;;;;26.33;48.16;100502.13;5134446;27;20043;-72
2022/08/08 11:00:44;;;;;;;12.05;2.97;;;;;;;26.40;47.94;100503.13;5134321;27;20047;-73
2022/08/08 11:03:39;;;;;;;8.55;3.15;;;;;;;26.39;48.17;100506.03;5134628;27;20043;-73
2022/08/08 11:06:31;;;;;;;7.28;2.75;;;;;;;26.61;48.03;100504.22;5134556;27;20039;-73
2022/08/08 11:09:04;;;;;;;8.90;2.60;;;;;;;26.38;47.93;100507.09;5133356;27;20089;-73
2022/08/08 11:11:46;;;;;;;11.00;2.90;;;;;;;26.65;47.89;100511.03;5134077;27;20039;-72
2022/08/08 11:14:35;;;;;;;4.93;2.47;;;;;;;26.52;45.34;100509.78;5134313;27;20084;-71
2022/08/08 11:17:05;;;;;;;6.68;3.00;;;;;;;26.61;44.49;100510.53;5133141;27;20047;-71
2022/08/08 11:19:43;;;;;;;4.78;2.10;;;;;;;26.86;42.12;100507.50;5132435;27;20047;-71
2022/08/08 11:22:25;;;;;;;6.60;2.22;;;;;;;27.02;41.67;100524.59;5132936;27;20151;-71
2022/08/08 11:24:55;;;;;;;5.57;2.17;;;;;;;27.26;41.47;100511.56;5132603;27;20096;-71
2022/08/08 11:27:29;;;;;;;5.70;2.47;;;;;;;27.36;41.57;100520.31;5133943;27;20179;-71
2022/08/08 11:30:07;;;;;;;5.43;2.50;;;;;;;27.37;41.69;100522.84;5132722;27;20051;-71
2022/08/08 11:32:54;;;;;;;5.32;2.55;;;;;;;27.45;42.39;100518.28;5132443;27;20047;-71
2022/08/08 11:35:24;;;;;;;5.43;2.60;;;;;;;27.41;42.78;100519.72;5132786;27;20047;-71
2022/08/08 11:38:12;;;;;;;5.00;2.40;;;;;;;27.48;43.28;100506.94;5132623;27;20050;-72
2022/08/08 11:41:01;;;;;;;4.47;2.63;;;;;;;27.27;43.65;100518.75;5133617;27;20092;-71
2022/08/08 11:43:31;;;;;;;8.38;2.88;;;;;;;26.74;45.82;100518.09;5132454;27;20054;-73
2022/08/08 11:46:08;;;;;;;5.88;3.00;;;;;;;26.74;46.15;100518.09;5132776;27;20351;-71
2022/08/08 11:48:48;;;;;;;8.20;2.83;;;;;;;26.79;46.64;100524.69;5132048;27;20080;-73
2022/08/08 11:51:18;;;;;;;5.28;2.70;;;;;;;26.98;47.13;100520.50;5133575;27;20440;-71
2022/08/08 11:54:07;;;;;;;4.05;2.85;;;;;;;26.81;48.98;100521.75;5133850;27;20043;-73
2022/08/08 11:56:55;;;;;;;7.43;3.10;;;;;;;26.92;49.74;100514.94;5133209;27;20050;-73
2022/08/08 11:59:33;;;;;;;4.50;2.97;;;;;;;26.76;48.32;100529.69;5131985;27;20391;-72
2022/08/08 12:02:23;;;;;;;4.07;2.60;;;;;;;26.48;48.60;100524.91;5133428;27;20080;-72
2022/08/08 12:05:08;;;;;;;5.82;2.70;;;;;;;26.48;49.25;100515.84;5133481;27;20047;-71
2022/08/08 12:07:48;;;;;;;6.43;2.53;;;;;;;26.38;49.25;100515.28;5131820;27;20061;-71
2022/08/08 12:10:20;;;;;;;4.07;2.85;;;;;;;26.37;50.50;100502.63;5133363;27;20476;-71
2022/08/08 12:12:49;;;;;;;5.85;3.08;;;;;;;26.25;50.88;100505.81;5131753;27;20043;-71
2022/08/08 12:15:28;;;;;;;;;;;;;;;26.15;51.73;100509.84;5132516;27;20043;-71
2022/08/08 12:17:57;;;;;;;6.93;2.90;;;;;;;26.09;52.49;100511.47;5132997;27;20030;-72
2022/08/08 12:20:39;;;;;;;7.05;2.97;;;;;;;26.06;53.01;100506.38;5133240;27;20066;-73
2022/08/08 12:23:07;;;;;;;7.13;3.17;;;;;;;26.02;52.68;100510.50;5133652;27;20510;-73
2022/08/08 12:25:55;;;;;;;6.70;3.30;;;;;;;25.94;55.24;100508.69;5133074;27;20158;-71
2022/08/08 12:28:24;;;;;;;6.57;3.45;;;;;;;26.14;55.17;100519.09;5132131;28;20444;-72
2022/08/08 12:30:52;;;;;;;7.50;3.60;;;;;;;26.12;56.08;100518.44;5131480;28;20100;-73
2022/08/08 12:33:26;;;;;;;7.55;3.15;;;;;;;26.12;56.20;100543.03;5132025;28;20046;-73
2022/08/08 12:36:16;;;;;;;7.20;3.35;;;;;;;26.09;56.92;100537.94;5133029;27;20402;-73
2022/08/08 12:38:50;;;;;;;7.50;3.80;;;;;;;25.46;59.96;100531.78;5131390;28;20471;-73
2022/08/08 12:41:25;;;;;;;6.63;3.25;;;;;;;25.43;59.66;100547.69;5132939;27;20509;-73
2022/08/08 12:44:07;;;;;;;5.10;3.53;;;;;;;25.11;61.21;100534.09;5133263;27;20039;-72